If you wish to contribute or participate in the discussions about articles you are invited to join SKYbrary as a registered user

 Actions

Kipnuk Airport

From SKYbrary Wiki

PAKI
Airport
ICAO: PAKI – IATA: KPN
Summary
Name Kipnuk Airport
Region North America
Territory Alaska US.gif
Location , Alaska
Serving Kipnuk
Elevation 3.353 m
11 ft
11 ft3.353 m
Type small airport
Coordinates 59° 55' 59.00" N, 164° 1' 50.00" W
Runways
Designator Length Width Surface ROPS
15/33 646 m2,119.423 ft
11 m36.089 ft
GRAVEL-G /


METAR
Observation PAKI 161956Z AUTO 34010KT 10SM FEW010 OVC020 11/09 A2990 RMK AO2 RAB36E48 SLP128 P0000 T01110094
Station Kipnuk, Kipnuk Airport
Date/Time 16 September 2019 19:56:00
Wind direction 340°
Wind speed 10 kts
Lowest cloud amount few clouds
Temperature 11.1°C
Dew point 9.4°C
Humidity 89%
QNH hPa
Weather condition n/a